createdAt,value
2023-04-10T00:02:03.941Z,95510.44
2023-04-10T00:04:31.972Z,95506.44
2023-04-10T00:07:01.384Z,95507.19
2023-04-10T00:09:29.746Z,95503.25
2023-04-10T00:11:57.784Z,95501.22
2023-04-10T00:14:25.695Z,95498.84
2023-04-10T00:16:53.715Z,95492.81
2023-04-10T00:19:21.637Z,95496.22
2023-04-10T00:21:49.565Z,95496.00
2023-04-10T00:24:18.835Z,95496.00
2023-04-10T00:26:46.719Z,95493.19
2023-04-10T00:29:14.669Z,95493.59
2023-04-10T00:31:42.648Z,95498.41
2023-04-10T00:34:10.718Z,95497.22
2023-04-10T00:36:38.730Z,95504.88
2023-04-10T00:39:07.417Z,95514.97
2023-04-10T00:41:36.681Z,95513.56
2023-04-10T00:44:04.637Z,95515.72
2023-04-10T00:46:35.388Z,95508.66
2023-04-10T00:49:03.675Z,95500.09
2023-04-10T00:51:32.390Z,95500.09
2023-04-10T00:54:02.393Z,95504.13
2023-04-10T00:56:32.646Z,95503.69
2023-04-10T00:59:04.058Z,95502.09
2023-04-10T01:01:33.280Z,95484.50
2023-04-10T01:04:01.488Z,95498.53
2023-04-10T01:06:43.633Z,95493.13
2023-04-10T01:09:18.991Z,95497.09
2023-04-10T01:11:56.511Z,95498.53
2023-04-10T01:14:32.084Z,95489.78
2023-04-10T01:17:06.409Z,95492.59
2023-04-10T01:20:00.260Z,95491.25
2023-04-10T01:22:34.260Z,95490.97
2023-04-10T01:25:16.356Z,95492.16
2023-04-10T01:27:54.279Z,95491.78
2023-04-10T01:30:24.386Z,95490.78
2023-04-10T01:32:56.416Z,95494.59
2023-04-10T01:35:25.541Z,95492.56
2023-04-10T01:37:54.804Z,95489.53
2023-04-10T01:40:24.394Z,95484.94
2023-04-10T01:42:56.401Z,95478.56
2023-04-10T01:45:33.755Z,95473.78
2023-04-10T01:48:02.228Z,95478.56
2023-04-10T01:50:30.921Z,95475.53
2023-04-10T01:53:00.584Z,95473.94
2023-04-10T01:55:29.241Z,95470.56
2023-04-10T01:58:04.815Z,95475.78
2023-04-10T02:00:39.227Z,95468.56
2023-04-10T02:03:07.454Z,95466.56
2023-04-10T02:05:42.466Z,95467.97
2023-04-10T02:08:16.680Z,95476.22
2023-04-10T02:10:53.804Z,95461.75
2023-04-10T02:13:23.372Z,95471.81
2023-04-10T02:15:57.192Z,95481.84
2023-04-10T02:18:26.603Z,95481.84
2023-04-10T02:20:55.870Z,95478.25
2023-04-10T02:23:24.647Z,95482.28
2023-04-10T02:25:52.657Z,95485.88
2023-04-10T02:28:20.905Z,95482.28
2023-04-10T02:30:48.869Z,95488.91
2023-04-10T02:33:18.227Z,95475.09
2023-04-10T02:35:46.152Z,95490.31
2023-04-10T02:38:15.542Z,95491.53
2023-04-10T02:40:44.762Z,95501.97
2023-04-10T02:43:14.750Z,95494.97
2023-04-10T02:45:43.859Z,95489.34
2023-04-10T02:48:15.087Z,95486.34
2023-04-10T02:50:46.643Z,95487.56
2023-04-10T02:53:15.610Z,95488.75
2023-04-10T02:55:43.646Z,95487.56
2023-04-10T02:58:13.832Z,95489.78
2023-04-10T03:00:42.868Z,95497.56
2023-04-10T03:03:31.075Z,95488.94
2023-04-10T03:06:00.531Z,95493.56
2023-04-10T03:08:32.478Z,95496.16
2023-04-10T03:11:00.402Z,95499.59
2023-04-10T03:13:29.546Z,95488.56
2023-04-10T03:15:57.682Z,95490.34
2023-04-10T03:18:25.681Z,95497.56
2023-04-10T03:20:55.673Z,95497.97
2023-04-10T03:23:26.215Z,95500.00
2023-04-10T03:25:54.930Z,95499.81
2023-04-10T03:28:27.878Z,95495.59
2023-04-10T03:30:55.818Z,95492.19
2023-04-10T03:33:24.327Z,95496.00
2023-04-10T03:35:53.685Z,95486.38
2023-04-10T03:38:21.653Z,95493.56
2023-04-10T03:40:51.258Z,95501.19
2023-04-10T03:43:21.211Z,95491.19
2023-04-10T03:45:49.553Z,95491.78
2023-04-10T03:48:17.975Z,95490.78
2023-04-10T03:50:48.029Z,95489.56
2023-04-10T03:53:17.224Z,95496.00
2023-04-10T03:55:46.170Z,95491.19
2023-04-10T03:58:15.706Z,95487.19
2023-04-10T04:00:43.723Z,95491.78
2023-04-10T04:03:20.381Z,95489.97
2023-04-10T04:06:00.500Z,95492.78
2023-04-10T04:08:48.650Z,95490.78
2023-04-10T04:11:36.549Z,95494.00
2023-04-10T04:14:10.644Z,95493.59
2023-04-10T04:16:57.762Z,95491.19
2023-04-10T04:19:44.239Z,95488.00
2023-04-10T04:22:19.817Z,95497.59
2023-04-10T04:25:11.552Z,95502.78
2023-04-10T04:27:58.284Z,95504.78
2023-04-10T04:30:41.685Z,95496.38
2023-04-10T04:33:19.591Z,95496.00
2023-04-10T04:36:10.456Z,95498.81
2023-04-10T04:39:07.624Z,95496.78
2023-04-10T04:41:41.265Z,95488.41
2023-04-10T04:44:15.013Z,95500.81
2023-04-10T04:47:07.436Z,95495.59
2023-04-10T04:49:52.424Z,95491.59
2023-04-10T04:52:23.722Z,95495.19
2023-04-10T04:55:08.629Z,95505.19
2023-04-10T04:58:06.167Z,95516.41
2023-04-10T05:00:48.627Z,95518.22
2023-04-10T05:03:33.248Z,95522.00
2023-04-10T05:06:22.162Z,95528.81
2023-04-10T05:09:19.552Z,95524.63
2023-04-10T05:12:06.465Z,95532.00
2023-04-10T05:14:52.986Z,95519.97
2023-04-10T05:17:37.145Z,95513.97
2023-04-10T05:20:16.314Z,95522.00
2023-04-10T05:23:03.168Z,95514.38
2023-04-10T05:25:50.730Z,95523.19
2023-04-10T05:28:32.885Z,95515.56
2023-04-10T05:31:19.526Z,95516.81
2023-04-10T05:33:56.018Z,95518.78
2023-04-10T05:36:36.769Z,95523.59
2023-04-10T05:39:09.967Z,95527.22
2023-04-10T05:41:56.341Z,95528.97
2023-04-10T05:44:32.060Z,95529.84
2023-04-10T05:47:30.138Z,95532.19
2023-04-10T05:50:17.232Z,95527.56
2023-04-10T05:53:01.047Z,95531.03
2023-04-10T05:55:44.990Z,95527.50
2023-04-10T05:58:33.172Z,95525.91
2023-04-10T06:01:14.777Z,95526.91
2023-04-10T06:03:45.637Z,95528.34
2023-04-10T06:06:14.688Z,95529.97
2023-04-10T06:08:44.108Z,95535.63
2023-04-10T06:11:12.132Z,95536.63
2023-04-10T06:13:42.676Z,95531.22
2023-04-10T06:16:11.335Z,95543.22
2023-04-10T06:18:39.974Z,95549.25
2023-04-10T06:21:08.663Z,95540.84
2023-04-10T06:23:37.310Z,95547.44
2023-04-10T06:26:06.994Z,95542.41
2023-04-10T06:28:34.989Z,95542.41
2023-04-10T06:31:04.887Z,95551.22
2023-04-10T06:33:36.957Z,95549.22
2023-04-10T06:36:08.585Z,95549.22
2023-04-10T06:38:42.803Z,95552.81
2023-04-10T06:41:12.101Z,95556.03
2023-04-10T06:43:40.669Z,95555.25
2023-04-10T06:46:08.780Z,95554.88
2023-04-10T06:48:36.710Z,95555.66
2023-04-10T06:51:05.030Z,95554.44
2023-04-10T06:53:32.969Z,95558.47
2023-04-10T06:56:03.072Z,95545.63
2023-04-10T06:58:33.017Z,95551.59
2023-04-10T07:01:04.560Z,95551.13
2023-04-10T07:03:33.855Z,95545.84
2023-04-10T07:06:03.311Z,95550.41
2023-04-10T07:08:31.440Z,95546.16
2023-04-10T07:10:59.345Z,95543.66
2023-04-10T07:13:27.246Z,95538.78
2023-04-10T07:15:56.616Z,95547.53
2023-04-10T07:18:24.510Z,95544.28
2023-04-10T07:20:52.731Z,95540.88
2023-04-10T07:23:20.719Z,95544.25
2023-04-10T07:25:48.575Z,95548.41
2023-04-10T07:28:16.449Z,95547.78
2023-04-10T07:30:44.327Z,95552.72
2023-04-10T07:33:13.772Z,95548.47
2023-04-10T07:35:41.911Z,95551.69
2023-04-10T07:38:09.910Z,95547.13
2023-04-10T07:40:37.802Z,95553.50
2023-04-10T07:43:05.776Z,95555.16
2023-04-10T07:45:34.044Z,95549.22
2023-04-10T07:48:02.779Z,95549.66
2023-04-10T07:50:32.097Z,95552.06
2023-04-10T07:53:03.584Z,95547.56
2023-04-10T07:55:31.505Z,95545.97
2023-04-10T07:57:59.420Z,95548.28
2023-04-10T08:00:27.349Z,95548.41
2023-04-10T08:02:55.827Z,95546.97
2023-04-10T08:05:23.962Z,95551.66
2023-04-10T08:07:53.338Z,95546.16
2023-04-10T08:10:21.495Z,95547.28
2023-04-10T08:12:49.501Z,95545.91
2023-04-10T08:15:18.627Z,95547.44
2023-04-10T08:17:46.647Z,95547.31
2023-04-10T08:20:15.400Z,95541.78
2023-04-10T08:22:43.356Z,95548.31
2023-04-10T08:25:12.813Z,95551.97
2023-04-10T08:27:40.788Z,95550.09
2023-04-10T08:30:09.665Z,95548.56
2023-04-10T08:32:37.704Z,95557.41
2023-04-10T08:35:06.592Z,95558.16
2023-04-10T08:37:34.447Z,95556.91
2023-04-10T08:40:02.334Z,95562.94
2023-04-10T08:42:32.566Z,95561.91
2023-04-10T08:45:01.954Z,95557.38
2023-04-10T08:47:36.979Z,95559.53
2023-04-10T08:50:08.283Z,95561.03
2023-04-10T08:52:39.186Z,95567.41
2023-04-10T08:55:10.479Z,95570.25
2023-04-10T08:57:42.881Z,95562.91
2023-04-10T09:00:23.086Z,95560.88
2023-04-10T09:02:58.017Z,95557.03
2023-04-10T09:05:28.361Z,95554.38
2023-04-10T09:07:56.296Z,95552.78
2023-04-10T09:10:24.359Z,95554.13
2023-04-10T09:12:53.610Z,95552.59
2023-04-10T09:15:21.578Z,95560.25
2023-04-10T09:18:00.226Z,95550.38
2023-04-10T09:20:31.974Z,95549.59
2023-04-10T09:23:00.030Z,95539.81
2023-04-10T09:25:33.186Z,95543.09
2023-04-10T09:28:04.517Z,95552.09
2023-04-10T09:30:37.465Z,95543.28
2023-04-10T09:33:22.556Z,95529.34
2023-04-10T09:35:51.099Z,95524.22
2023-04-10T09:38:20.685Z,95518.22
2023-04-10T09:40:49.665Z,95525.09
2023-04-10T09:43:24.059Z,95516.91
2023-04-10T09:45:53.065Z,95518.75
2023-04-10T09:48:21.493Z,95523.53
2023-04-10T09:50:49.504Z,95525.81
2023-04-10T09:53:20.058Z,95525.16
2023-04-10T09:55:49.593Z,95518.06
2023-04-10T09:58:19.044Z,95517.59
2023-04-10T10:00:49.880Z,95525.34
2023-04-10T10:03:19.070Z,95523.50
2023-04-10T10:05:49.178Z,95511.44
2023-04-10T10:08:17.745Z,95519.88
2023-04-10T10:10:49.009Z,95519.16
2023-04-10T10:13:21.625Z,95522.25
2023-04-10T10:15:59.347Z,95518.28
2023-04-10T10:18:40.341Z,95519.72
2023-04-10T10:21:10.054Z,95521.66
2023-04-10T10:23:39.062Z,95515.03
2023-04-10T10:26:07.808Z,95507.72
2023-04-10T10:28:37.695Z,95513.81
2023-04-10T10:31:08.182Z,95515.38
2023-04-10T10:33:37.677Z,95514.47
2023-04-10T10:36:06.659Z,95512.88
2023-04-10T10:38:35.528Z,95509.88
2023-04-10T10:41:10.606Z,95505.88
2023-04-10T10:43:51.851Z,95505.25
2023-04-10T10:46:30.980Z,95495.72
2023-04-10T10:48:59.209Z,95502.94
2023-04-10T10:51:45.607Z,95497.88
2023-04-10T10:54:29.875Z,95493.25
2023-04-10T10:56:57.931Z,95495.03
2023-04-10T10:59:57.749Z,95497.75
2023-04-10T11:02:27.332Z,95501.19
2023-04-10T11:04:55.555Z,95496.72
2023-04-10T11:07:23.486Z,95503.63
2023-04-10T11:09:52.981Z,95502.66
2023-04-10T11:12:23.041Z,95501.19
2023-04-10T11:15:01.381Z,95498.19
2023-04-10T11:17:51.382Z,95509.81
2023-04-10T11:20:21.972Z,95509.66
2023-04-10T11:23:10.443Z,95508.41
2023-04-10T11:25:49.462Z,95517.81
2023-04-10T11:28:35.788Z,95517.94
2023-04-10T11:31:19.341Z,95523.56
2023-04-10T11:33:49.850Z,95524.34
2023-04-10T11:36:18.713Z,95525.94
2023-04-10T11:38:57.280Z,95526.06
2023-04-10T11:41:30.645Z,95525.75
2023-04-10T11:43:59.451Z,95523.81
2023-04-10T11:46:27.638Z,95516.09
2023-04-10T11:48:59.792Z,95509.31
2023-04-10T11:51:28.451Z,95507.66
2023-04-10T11:54:07.685Z,95507.53
2023-04-10T11:56:36.383Z,95510.97
2023-04-10T11:59:07.624Z,95501.53
2023-04-10T12:01:35.840Z,95506.00
2023-04-10T12:04:07.984Z,95507.31
2023-04-10T12:06:36.449Z,95520.53
2023-04-10T12:09:14.482Z,95521.63
2023-04-10T12:11:50.536Z,95516.84
2023-04-10T12:14:18.643Z,95519.53
2023-04-10T12:16:47.254Z,95528.47
2023-04-10T12:19:18.137Z,95515.47
2023-04-10T12:21:46.944Z,95524.66
2023-04-10T12:24:35.042Z,95509.63
2023-04-10T12:27:02.959Z,95506.53
2023-04-10T12:29:31.104Z,95500.72
2023-04-10T12:31:59.092Z,95505.03
2023-04-10T12:34:28.430Z,95508.28
2023-04-10T12:36:56.396Z,95493.03
2023-04-10T12:39:26.925Z,95494.09
2023-04-10T12:41:54.860Z,95490.47
2023-04-10T12:44:22.986Z,95490.47
2023-04-10T12:46:51.038Z,95487.34
2023-04-10T12:49:19.642Z,95479.94
2023-04-10T12:51:50.288Z,95474.72
2023-04-10T12:54:32.082Z,95475.91
2023-04-10T12:57:00.553Z,95475.50
2023-04-10T12:59:29.213Z,95471.34
2023-04-10T13:01:57.398Z,95465.31
2023-04-10T13:04:25.724Z,95466.41
2023-04-10T13:06:55.157Z,95470.34
2023-04-10T13:09:23.091Z,95465.16
2023-04-10T13:11:52.680Z,95471.31
2023-04-10T13:14:20.796Z,95464.75
2023-04-10T13:16:48.799Z,95475.31
2023-04-10T13:19:16.895Z,95471.50
2023-04-10T13:21:44.990Z,95462.00
2023-04-10T13:24:16.505Z,95467.84
2023-04-10T13:26:44.732Z,95457.34
2023-04-10T13:29:12.650Z,95464.44
2023-04-10T13:31:40.609Z,95464.66
2023-04-10T13:34:08.569Z,95463.38
2023-04-10T13:36:36.552Z,95467.91
2023-04-10T13:39:04.660Z,95464.22
2023-04-10T13:41:34.084Z,95466.13
2023-04-10T13:44:02.046Z,95467.28
2023-04-10T13:46:30.071Z,95454.03
2023-04-10T13:48:58.333Z,95462.28
2023-04-10T13:51:26.608Z,95455.56
2023-04-10T13:53:54.529Z,95454.03
2023-04-10T13:56:22.452Z,95463.00
2023-04-10T13:58:51.833Z,95466.94
2023-04-10T14:01:19.877Z,95458.81
2023-04-10T14:03:47.990Z,95462.56
2023-04-10T14:06:15.996Z,95466.31
2023-04-10T14:08:43.959Z,95460.50
2023-04-10T14:11:11.842Z,95470.53
2023-04-10T14:13:39.750Z,95466.88
2023-04-10T14:16:09.881Z,95468.97
2023-04-10T14:18:37.977Z,95466.88
2023-04-10T14:21:06.201Z,95467.66
2023-04-10T14:23:34.073Z,95462.91
2023-04-10T14:26:02.025Z,95459.97
2023-04-10T14:28:30.025Z,95453.59
2023-04-10T14:30:57.972Z,95450.19
2023-04-10T14:33:27.362Z,95446.63
2023-04-10T14:35:55.737Z,95452.38
2023-04-10T14:38:23.754Z,95447.53
2023-04-10T14:40:51.922Z,95441.25
2023-04-10T14:43:19.810Z,95442.31
2023-04-10T14:45:47.722Z,95451.00
2023-04-10T14:48:16.042Z,95437.91
2023-04-10T14:50:45.384Z,95436.34
2023-04-10T14:53:13.284Z,95438.97
2023-04-10T14:55:41.177Z,95441.09
2023-04-10T14:58:11.158Z,95431.09
2023-04-10T15:00:39.116Z,95432.16
2023-04-10T15:03:08.717Z,95420.28
2023-04-10T15:05:36.782Z,95422.09
2023-04-10T15:08:06.171Z,95418.69
2023-04-10T15:10:34.134Z,95417.09
2023-04-10T15:13:02.069Z,95414.16
2023-04-10T15:15:29.954Z,95419.94
2023-04-10T15:17:57.942Z,95404.28
2023-04-10T15:20:25.827Z,95411.66
2023-04-10T15:22:53.728Z,95408.47
2023-04-10T15:25:23.012Z,95411.66
2023-04-10T15:27:50.947Z,95418.22
2023-04-10T15:30:19.399Z,95406.88
2023-04-10T15:32:47.376Z,95398.72
2023-04-10T15:35:15.271Z,95400.31
2023-04-10T15:37:43.194Z,95402.94
2023-04-10T15:40:11.692Z,95398.16
2023-04-10T15:42:40.960Z,95396.31
2023-04-10T15:45:09.073Z,95395.53
2023-04-10T15:47:37.028Z,95391.31
2023-04-10T15:50:05.749Z,95394.97
2023-04-10T15:52:33.902Z,95403.94
2023-04-10T15:55:01.825Z,95397.06
2023-04-10T15:57:29.794Z,95398.13
2023-04-10T16:00:00.671Z,95404.41
2023-04-10T16:02:28.912Z,95409.13
2023-04-10T16:04:57.216Z,95408.84
2023-04-10T16:07:25.328Z,95410.06
2023-04-10T16:09:55.139Z,95411.53
2023-04-10T16:12:23.118Z,95412.31
2023-04-10T16:14:51.005Z,95406.75
2023-04-10T16:17:20.337Z,95408.03
2023-04-10T16:19:48.246Z,95403.44
2023-04-10T16:22:16.154Z,95409.00
2023-04-10T16:24:44.028Z,95396.38
2023-04-10T16:27:12.101Z,95398.72
2023-04-10T16:29:40.313Z,95400.22
2023-04-10T16:32:08.248Z,95405.53
2023-04-10T16:34:37.560Z,95401.66
2023-04-10T16:37:05.730Z,95409.22
2023-04-10T16:39:33.596Z,95413.97
2023-04-10T16:42:03.451Z,95406.38
2023-04-10T16:44:31.721Z,95402.34
2023-04-10T16:46:59.878Z,95388.66
2023-04-10T16:49:27.802Z,95399.06
2023-04-10T16:51:57.077Z,95383.88
2023-04-10T16:54:25.009Z,95387.06
2023-04-10T16:56:52.973Z,95391.22
2023-04-10T16:59:20.949Z,95389.63
2023-04-10T17:01:48.928Z,95390.91
2023-04-10T17:04:19.036Z,95404.03
2023-04-10T17:06:47.022Z,95405.31
2023-04-10T17:09:16.605Z,95413.16
2023-04-10T17:11:44.755Z,95418.91
2023-04-10T17:14:13.424Z,95429.44
2023-04-10T17:16:41.524Z,95433.91
2023-04-10T17:19:09.496Z,95428.63
2023-04-10T17:21:37.405Z,95433.91
2023-04-10T17:24:05.491Z,95436.78
2023-04-10T17:26:34.859Z,95424.66
2023-04-10T17:29:02.850Z,95436.78
2023-04-10T17:31:31.401Z,95427.84
2023-04-10T17:33:59.416Z,95420.00
2023-04-10T17:36:28.029Z,95423.69
2023-04-10T17:38:56.440Z,95421.00
2023-04-10T17:41:24.506Z,95407.28
2023-04-10T17:43:53.835Z,95411.00
2023-04-10T17:46:22.438Z,95399.44
2023-04-10T17:48:50.392Z,95401.53
2023-04-10T17:51:18.323Z,95394.69
2023-04-10T17:53:46.776Z,95394.69
2023-04-10T17:56:20.856Z,95397.22
2023-04-10T17:58:48.852Z,95394.03
2023-04-10T18:01:24.196Z,95397.94
2023-04-10T18:03:52.212Z,95398.19
2023-04-10T18:06:20.342Z,95393.63
2023-04-10T18:08:48.266Z,95378.47
2023-04-10T18:11:16.410Z,95367.38
2023-04-10T18:13:44.438Z,95386.81
2023-04-10T18:16:12.398Z,95390.00
2023-04-10T18:18:42.571Z,95401.31
2023-04-10T18:21:11.255Z,95406.25
2023-04-10T18:23:40.131Z,95394.56
2023-04-10T18:26:08.503Z,95410.75
2023-04-10T18:28:37.858Z,95401.22
2023-04-10T18:31:06.511Z,95415.38
2023-04-10T18:33:34.590Z,95411.72
2023-04-10T18:36:03.964Z,95412.53
2023-04-10T18:38:31.980Z,95415.16
2023-04-10T18:40:59.902Z,95418.22
2023-04-10T18:43:28.437Z,95423.97
2023-04-10T18:45:56.660Z,95412.19
2023-04-10T18:48:24.573Z,95404.22
2023-04-10T18:50:53.699Z,95407.91
2023-04-10T18:53:23.535Z,95401.13
2023-04-10T18:55:52.572Z,95406.94
2023-04-10T18:58:21.464Z,95404.22
2023-04-10T19:00:49.804Z,95409.78
2023-04-10T19:03:17.897Z,95422.25
2023-04-10T19:05:46.002Z,95433.22
2023-04-10T19:08:14.665Z,95434.25
2023-04-10T19:10:44.332Z,95437.78
2023-04-10T19:13:13.277Z,95440.22
2023-04-10T19:15:43.041Z,95439.13
2023-04-10T19:18:13.029Z,95456.47
2023-04-10T19:20:52.691Z,95463.31
2023-04-10T19:23:21.564Z,95467.94
2023-04-10T19:25:54.339Z,95460.00
2023-04-10T19:28:24.012Z,95458.84
2023-04-10T19:30:52.052Z,95465.63
2023-04-10T19:33:20.456Z,95465.06
2023-04-10T19:35:48.371Z,95472.69
2023-04-10T19:38:16.371Z,95456.16
2023-04-10T19:40:44.602Z,95452.00
2023-04-10T19:43:14.149Z,95462.06
2023-04-10T19:45:42.208Z,95465.72
2023-04-10T19:48:10.876Z,95464.59
2023-04-10T19:50:39.009Z,95460.13
2023-04-10T19:53:07.198Z,95454.06
2023-04-10T19:55:35.420Z,95459.31
2023-04-10T19:58:03.315Z,95451.38
2023-04-10T20:00:32.608Z,95442.22
2023-04-10T20:03:00.778Z,95444.03
2023-04-10T20:05:28.981Z,95454.56
2023-04-10T20:07:56.914Z,95463.00
2023-04-10T20:10:25.011Z,95458.06
2023-04-10T20:12:52.924Z,95462.06
2023-04-10T20:15:21.368Z,95460.00
2023-04-10T20:17:50.704Z,95456.81
2023-04-10T20:20:18.675Z,95460.47
2023-04-10T20:22:46.650Z,95464.09
2023-04-10T20:25:14.525Z,95470.38
2023-04-10T20:27:42.409Z,95467.75
2023-04-10T20:30:11.009Z,95464.34
2023-04-10T20:32:39.009Z,95465.13
2023-04-10T20:35:09.649Z,95460.91
2023-04-10T20:37:37.581Z,95466.19
2023-04-10T20:40:06.500Z,95475.09
2023-04-10T20:42:34.513Z,95481.94
2023-04-10T20:45:02.482Z,95469.84
2023-04-10T20:47:30.584Z,95463.00
2023-04-10T20:49:58.543Z,95459.31
2023-04-10T20:52:27.863Z,95452.00
2023-04-10T20:54:55.919Z,95447.22
2023-04-10T20:57:23.879Z,95444.59
2023-04-10T20:59:51.793Z,95444.59
2023-04-10T21:02:19.870Z,95440.38
2023-04-10T21:04:48.044Z,95436.97
2023-04-10T21:07:15.925Z,95428.78
2023-04-10T21:09:45.759Z,95438.25
2023-04-10T21:12:13.688Z,95439.28
2023-04-10T21:14:41.601Z,95445.00
2023-04-10T21:17:09.527Z,95436.56
2023-04-10T21:19:37.465Z,95444.78
2023-04-10T21:22:05.453Z,95439.53
2023-04-10T21:24:33.416Z,95450.47
2023-04-10T21:27:02.836Z,95435.81
2023-04-10T21:29:30.943Z,95435.09
2023-04-10T21:31:58.933Z,95445.38
2023-04-10T21:34:26.902Z,95439.66
2023-04-10T21:36:55.546Z,95440.31
2023-04-10T21:39:23.610Z,95443.97
2023-04-10T21:41:51.594Z,95442.84
2023-04-10T21:44:21.086Z,95445.38
2023-04-10T21:46:49.024Z,95445.53
2023-04-10T21:49:16.938Z,95450.16
2023-04-10T21:51:44.864Z,95444.44
2023-04-10T21:54:12.788Z,95448.75
2023-04-10T21:56:41.456Z,95465.63
2023-04-10T21:59:09.365Z,95462.53
2023-04-10T22:01:41.560Z,95463.09
2023-04-10T22:04:09.711Z,95463.09
2023-04-10T22:06:37.713Z,95470.97
2023-04-10T22:09:05.763Z,95470.41
2023-04-10T22:11:34.396Z,95452.25
2023-04-10T22:14:12.710Z,95438.91
2023-04-10T22:16:45.781Z,95435.72
2023-04-10T22:19:13.696Z,95421.00
2023-04-10T22:21:41.718Z,95411.53
2023-04-10T22:24:09.824Z,95393.06
2023-04-10T22:26:37.745Z,95390.81
2023-04-10T22:29:05.688Z,95397.34
2023-04-10T22:31:33.595Z,95394.00
2023-04-10T22:34:02.898Z,95399.25
2023-04-10T22:36:33.571Z,95407.03
2023-04-10T22:39:01.625Z,95406.47
2023-04-10T22:41:30.532Z,95400.19
2023-04-10T22:43:58.600Z,95397.34
2023-04-10T22:46:26.863Z,95390.81
2023-04-10T22:48:54.905Z,95400.28
2023-04-10T22:51:24.376Z,95412.28
2023-04-10T22:53:52.267Z,95400.19
2023-04-10T22:56:23.284Z,95390.72
2023-04-10T22:58:51.359Z,95404.41
2023-04-10T23:01:19.330Z,95401.78
2023-04-10T23:03:47.320Z,95399.72
2023-04-10T23:06:15.999Z,95390.81
2023-04-10T23:08:45.319Z,95392.41
2023-04-10T23:11:13.237Z,95388.66
2023-04-10T23:13:42.084Z,95389.22
2023-04-10T23:16:11.206Z,95390.81
2023-04-10T23:18:39.244Z,95386.50
2023-04-10T23:21:08.278Z,95394.94
2023-04-10T23:23:36.489Z,95399.13
2023-04-10T23:26:06.120Z,95404.91
2023-04-10T23:28:34.062Z,95400.88
2023-04-10T23:31:01.963Z,95401.47
2023-04-10T23:33:29.996Z,95402.69
2023-04-10T23:35:57.868Z,95407.78
2023-04-10T23:38:25.784Z,95408.47
2023-04-10T23:40:54.354Z,95411.16
2023-04-10T23:43:23.842Z,95416.75
2023-04-10T23:45:51.741Z,95423.25
2023-04-10T23:48:19.698Z,95414.44
2023-04-10T23:50:47.598Z,95421.84
2023-04-10T23:53:15.566Z,95415.56
2023-04-10T23:55:44.045Z,95410.53
2023-04-10T23:58:11.985Z,95407.69
